sensor_id;sensor_type;location;lat;lon;timestamp;pressure;altitude;pressure_sealevel;temperature;humidity
19096;BME280;9680;52.520;13.332;2022-07-29T00:00:57;101684.97;;;17.26;54.94
19096;BME280;9680;52.520;13.332;2022-07-29T00:03:23;101680.88;;;17.21;55.20
19096;BME280;9680;52.520;13.332;2022-07-29T00:05:48;101688.00;;;17.18;55.47
19096;BME280;9680;52.520;13.332;2022-07-29T00:08:14;101690.78;;;17.15;55.51
19096;BME280;9680;52.520;13.332;2022-07-29T00:10:41;101685.66;;;17.12;55.72
19096;BME280;9680;52.520;13.332;2022-07-29T00:13:07;101694.50;;;17.11;55.73
19096;BME280;9680;52.520;13.332;2022-07-29T00:15:33;101691.94;;;17.10;55.85
19096;BME280;9680;52.520;13.332;2022-07-29T00:17:58;101695.50;;;17.09;56.01
19096;BME280;9680;52.520;13.332;2022-07-29T00:20:24;101691.16;;;17.08;56.21
19096;BME280;9680;52.520;13.332;2022-07-29T00:22:50;101689.53;;;17.05;56.20
19096;BME280;9680;52.520;13.332;2022-07-29T00:25:15;101677.53;;;16.99;56.65
19096;BME280;9680;52.520;13.332;2022-07-29T00:27:41;101681.88;;;17.00;56.73
19096;BME280;9680;52.520;13.332;2022-07-29T00:30:07;101682.88;;;16.98;56.95
19096;BME280;9680;52.520;13.332;2022-07-29T00:32:33;101681.16;;;16.97;57.33
19096;BME280;9680;52.520;13.332;2022-07-29T00:34:59;101679.59;;;16.93;57.08
19096;BME280;9680;52.520;13.332;2022-07-29T00:37:43;101670.00;;;16.92;57.05
19096;BME280;9680;52.520;13.332;2022-07-29T00:40:09;101671.84;;;16.89;57.19
19096;BME280;9680;52.520;13.332;2022-07-29T00:42:46;101671.16;;;16.86;57.44
19096;BME280;9680;52.520;13.332;2022-07-29T00:45:13;101672.91;;;16.85;57.58
19096;BME280;9680;52.520;13.332;2022-07-29T00:47:39;101675.56;;;16.85;57.71
19096;BME280;9680;52.520;13.332;2022-07-29T00:50:06;101685.41;;;16.82;58.06
19096;BME280;9680;52.520;13.332;2022-07-29T00:52:33;101688.09;;;16.80;58.57
19096;BME280;9680;52.520;13.332;2022-07-29T00:55:00;101676.88;;;16.77;58.03
19096;BME280;9680;52.520;13.332;2022-07-29T00:57:25;101672.59;;;16.74;58.17
19096;BME280;9680;52.520;13.332;2022-07-29T00:59:51;101669.13;;;16.73;58.44
19096;BME280;9680;52.520;13.332;2022-07-29T01:02:16;101667.50;;;16.71;58.47
19096;BME280;9680;52.520;13.332;2022-07-29T01:04:42;101665.78;;;16.70;58.49
19096;BME280;9680;52.520;13.332;2022-07-29T01:07:07;101667.50;;;16.71;58.76
19096;BME280;9680;52.520;13.332;2022-07-29T01:09:34;101668.38;;;16.71;58.63
19096;BME280;9680;52.520;13.332;2022-07-29T01:12:01;101666.72;;;16.69;58.94
19096;BME280;9680;52.520;13.332;2022-07-29T01:14:27;101660.78;;;16.65;59.10
19096;BME280;9680;52.520;13.332;2022-07-29T01:25:39;101649.78;;;16.57;59.67
19096;BME280;9680;52.520;13.332;2022-07-29T01:31:02;101642.25;;;16.49;59.81
19096;BME280;9680;52.520;13.332;2022-07-29T01:33:29;101633.59;;;16.47;60.05
19096;BME280;9680;52.520;13.332;2022-07-29T01:36:21;101629.47;;;16.41;60.50
19096;BME280;9680;52.520;13.332;2022-07-29T01:39:12;101617.41;;;16.37;60.79
19096;BME280;9680;52.520;13.332;2022-07-29T01:41:47;101603.47;;;16.35;60.52
19096;BME280;9680;52.520;13.332;2022-07-29T01:44:33;101601.00;;;16.32;60.60
19096;BME280;9680;52.520;13.332;2022-07-29T01:47:05;101588.78;;;16.31;60.73
19096;BME280;9680;52.520;13.332;2022-07-29T01:49:35;101584.53;;;16.28;60.71
19096;BME280;9680;52.520;13.332;2022-07-29T01:52:05;101582.91;;;16.26;61.03
19096;BME280;9680;52.520;13.332;2022-07-29T01:54:43;101586.59;;;16.22;61.42
19096;BME280;9680;52.520;13.332;2022-07-29T01:57:15;101581.41;;;16.20;61.23
19096;BME280;9680;52.520;13.332;2022-07-29T01:59:45;101582.31;;;16.19;61.35
19096;BME280;9680;52.520;13.332;2022-07-29T02:02:14;101589.44;;;16.17;61.66
19096;BME280;9680;52.520;13.332;2022-07-29T02:04:41;101585.19;;;16.14;61.53
19096;BME280;9680;52.520;13.332;2022-07-29T02:07:11;101576.44;;;16.14;61.60
19096;BME280;9680;52.520;13.332;2022-07-29T02:09:39;101577.38;;;16.13;61.86
19096;BME280;9680;52.520;13.332;2022-07-29T02:12:07;101581.78;;;16.12;61.97
19096;BME280;9680;52.520;13.332;2022-07-29T02:14:37;101582.94;;;16.07;62.24
19096;BME280;9680;52.520;13.332;2022-07-29T02:17:03;101587.34;;;16.06;62.21
19096;BME280;9680;52.520;13.332;2022-07-29T02:19:32;101587.41;;;16.05;62.41
19096;BME280;9680;52.520;13.332;2022-07-29T02:21:58;101590.13;;;16.03;62.41
19096;BME280;9680;52.520;13.332;2022-07-29T02:24:25;101588.47;;;16.00;62.19
19096;BME280;9680;52.520;13.332;2022-07-29T02:26:54;101594.50;;;16.02;62.66
19096;BME280;9680;52.520;13.332;2022-07-29T02:29:22;101594.50;;;16.02;62.31
19096;BME280;9680;52.520;13.332;2022-07-29T02:31:49;101597.06;;;16.04;62.55
19096;BME280;9680;52.520;13.332;2022-07-29T02:34:17;101595.28;;;16.05;62.60
19096;BME280;9680;52.520;13.332;2022-07-29T02:36:44;101591.88;;;16.02;62.62
19096;BME280;9680;52.520;13.332;2022-07-29T02:39:12;101589.19;;;16.04;62.24
19096;BME280;9680;52.520;13.332;2022-07-29T02:41:49;101591.81;;;16.04;62.48
19096;BME280;9680;52.520;13.332;2022-07-29T02:44:17;101591.88;;;16.02;62.38
19096;BME280;9680;52.520;13.332;2022-07-29T02:46:50;101591.97;;;16.01;62.59
19096;BME280;9680;52.520;13.332;2022-07-29T02:51:54;101588.28;;;16.05;62.77
19096;BME280;9680;52.520;13.332;2022-07-29T02:54:30;101594.34;;;16.06;62.59
19096;BME280;9680;52.520;13.332;2022-07-29T02:56:59;101593.44;;;16.07;62.63
19096;BME280;9680;52.520;13.332;2022-07-29T02:59:27;101589.88;;;16.08;62.33
19096;BME280;9680;52.520;13.332;2022-07-29T03:01:57;101587.09;;;16.11;62.42
19096;BME280;9680;52.520;13.332;2022-07-29T03:04:24;101584.31;;;16.14;62.23
19096;BME280;9680;52.520;13.332;2022-07-29T03:06:52;101593.13;;;16.13;62.40
19096;BME280;9680;52.520;13.332;2022-07-29T03:09:18;101586.19;;;16.12;62.32
19096;BME280;9680;52.520;13.332;2022-07-29T03:11:45;101588.97;;;16.09;62.48
19096;BME280;9680;52.520;13.332;2022-07-29T03:14:11;101592.50;;;16.08;62.49
19096;BME280;9680;52.520;13.332;2022-07-29T03:16:38;101583.84;;;16.06;62.71
19096;BME280;9680;52.520;13.332;2022-07-29T03:19:04;101581.31;;;16.04;62.61
19096;BME280;9680;52.520;13.332;2022-07-29T03:21:30;101582.09;;;16.06;62.60
19096;BME280;9680;52.520;13.332;2022-07-29T03:23:56;101583.94;;;16.04;62.61
19096;BME280;9680;52.520;13.332;2022-07-29T03:26:22;101577.91;;;16.02;62.83
19096;BME280;9680;52.520;13.332;2022-07-29T03:28:47;101587.50;;;16.03;62.83
19096;BME280;9680;52.520;13.332;2022-07-29T03:31:12;101581.38;;;16.02;62.69
19096;BME280;9680;52.520;13.332;2022-07-29T03:33:38;101571.88;;;16.00;62.72
19096;BME280;9680;52.520;13.332;2022-07-29T03:36:03;101576.19;;;16.01;62.77
19096;BME280;9680;52.520;13.332;2022-07-29T03:38:30;101565.75;;;15.99;62.62
19096;BME280;9680;52.520;13.332;2022-07-29T03:41:03;101569.94;;;16.04;62.48
19096;BME280;9680;52.520;13.332;2022-07-29T03:43:32;101567.44;;;16.00;62.79
19096;BME280;9680;52.520;13.332;2022-07-29T03:46:00;101570.09;;;16.00;62.81
19096;BME280;9680;52.520;13.332;2022-07-29T03:48:28;101560.34;;;16.02;62.81
19096;BME280;9680;52.520;13.332;2022-07-29T03:50:56;101558.59;;;16.03;62.49
19096;BME280;9680;52.520;13.332;2022-07-29T03:53:22;101562.91;;;16.04;62.55
19096;BME280;9680;52.520;13.332;2022-07-29T03:55:52;101561.06;;;16.06;62.51
19096;BME280;9680;52.520;13.332;2022-07-29T03:58:19;101562.63;;;16.10;62.20
19096;BME280;9680;52.520;13.332;2022-07-29T04:00:46;101565.94;;;16.14;62.12
19096;BME280;9680;52.520;13.332;2022-07-29T04:03:12;101557.06;;;16.16;62.10
19096;BME280;9680;52.520;13.332;2022-07-29T04:05:59;101570.13;;;16.18;61.76
19096;BME280;9680;52.520;13.332;2022-07-29T04:08:25;101569.03;;;16.22;61.78
19096;BME280;9680;52.520;13.332;2022-07-29T04:10:50;101568.00;;;16.26;61.68
19096;BME280;9680;52.520;13.332;2022-07-29T04:13:18;101562.56;;;16.29;61.59
19096;BME280;9680;52.520;13.332;2022-07-29T04:15:44;101566.81;;;16.32;61.69
19096;BME280;9680;52.520;13.332;2022-07-29T04:18:12;101576.34;;;16.35;61.63
19096;BME280;9680;52.520;13.332;2022-07-29T04:20:37;101577.81;;;16.40;61.52
19096;BME280;9680;52.520;13.332;2022-07-29T04:23:03;101581.31;;;16.41;61.34
19096;BME280;9680;52.520;13.332;2022-07-29T04:25:28;101581.22;;;16.42;61.35
19096;BME280;9680;52.520;13.332;2022-07-29T04:27:54;101574.88;;;16.47;61.30
19096;BME280;9680;52.520;13.332;2022-07-29T04:30:25;101567.69;;;16.50;61.17
19096;BME280;9680;52.520;13.332;2022-07-29T04:32:51;101574.28;;;16.59;60.97
19096;BME280;9680;52.520;13.332;2022-07-29T04:35:18;101575.84;;;16.63;60.61
19096;BME280;9680;52.520;13.332;2022-07-29T04:37:43;101575.66;;;16.66;60.29
19096;BME280;9680;52.520;13.332;2022-07-29T04:40:09;101577.22;;;16.70;60.40
19096;BME280;9680;52.520;13.332;2022-07-29T04:42:35;101571.63;;;16.77;60.10
19096;BME280;9680;52.520;13.332;2022-07-29T04:45:00;101577.53;;;16.82;59.94
19096;BME280;9680;52.520;13.332;2022-07-29T04:47:26;101573.81;;;16.86;59.62
19096;BME280;9680;52.520;13.332;2022-07-29T04:49:51;101575.41;;;16.88;59.18
19096;BME280;9680;52.520;13.332;2022-07-29T04:52:17;101576.75;;;16.97;59.02
19096;BME280;9680;52.520;13.332;2022-07-29T04:54:42;101575.50;;;17.05;58.86
19096;BME280;9680;52.520;13.332;2022-07-29T04:57:07;101585.47;;;17.15;58.55
19096;BME280;9680;52.520;13.332;2022-07-29T04:59:33;101570.81;;;17.27;58.60
19096;BME280;9680;52.520;13.332;2022-07-29T05:01:59;101578.13;;;17.38;58.02
19096;BME280;9680;52.520;13.332;2022-07-29T05:04:25;101574.00;;;17.50;57.82
19096;BME280;9680;52.520;13.332;2022-07-29T05:06:50;101571.38;;;17.66;57.55
19096;BME280;9680;52.520;13.332;2022-07-29T05:09:16;101576.63;;;17.82;56.95
19096;BME280;9680;52.520;13.332;2022-07-29T05:11:41;101566.28;;;17.95;56.46
19096;BME280;9680;52.520;13.332;2022-07-29T05:14:06;101570.81;;;18.09;56.23
19096;BME280;9680;52.520;13.332;2022-07-29T05:16:32;101571.13;;;18.19;55.46
19096;BME280;9680;52.520;13.332;2022-07-29T05:18:58;101563.53;;;18.29;55.36
19096;BME280;9680;52.520;13.332;2022-07-29T05:21:24;101561.59;;;18.32;55.12
19096;BME280;9680;52.520;13.332;2022-07-29T05:23:49;101568.28;;;18.38;54.91
19096;BME280;9680;52.520;13.332;2022-07-29T05:26:15;101568.19;;;18.40;54.53
19096;BME280;9680;52.520;13.332;2022-07-29T05:28:41;101560.66;;;18.33;54.09
19096;BME280;9680;52.520;13.332;2022-07-29T05:31:06;101560.91;;;18.29;54.01
19096;BME280;9680;52.520;13.332;2022-07-29T05:33:32;101553.84;;;18.29;54.16
19096;BME280;9680;52.520;13.332;2022-07-29T05:35:58;101560.53;;;18.35;54.08
19096;BME280;9680;52.520;13.332;2022-07-29T05:38:26;101549.63;;;18.41;53.89
19096;BME280;9680;52.520;13.332;2022-07-29T05:40:51;101555.66;;;18.43;53.67
19096;BME280;9680;52.520;13.332;2022-07-29T05:43:17;101553.59;;;18.48;53.76
19096;BME280;9680;52.520;13.332;2022-07-29T05:45:43;101553.44;;;18.52;53.77
19096;BME280;9680;52.520;13.332;2022-07-29T05:48:08;101556.56;;;18.58;53.40
19096;BME280;9680;52.520;13.332;2022-07-29T05:50:33;101559.78;;;18.63;53.53
19096;BME280;9680;52.520;13.332;2022-07-29T05:52:59;101563.47;;;18.61;53.03
19096;BME280;9680;52.520;13.332;2022-07-29T05:55:24;101566.84;;;18.63;53.08
19096;BME280;9680;52.520;13.332;2022-07-29T05:57:52;101564.69;;;18.70;52.85
19096;BME280;9680;52.520;13.332;2022-07-29T06:00:17;101563.31;;;18.78;52.88
19096;BME280;9680;52.520;13.332;2022-07-29T06:02:43;101562.38;;;18.94;52.73
19096;BME280;9680;52.520;13.332;2022-07-29T06:05:08;101565.81;;;19.11;52.38
19096;BME280;9680;52.520;13.332;2022-07-29T06:07:34;101565.53;;;19.30;51.98
19096;BME280;9680;52.520;13.332;2022-07-29T06:09:59;101573.03;;;19.50;51.29
19096;BME280;9680;52.520;13.332;2022-07-29T06:12:25;101563.78;;;19.72;50.67
19096;BME280;9680;52.520;13.332;2022-07-29T06:14:50;101559.78;;;19.94;50.42
19096;BME280;9680;52.520;13.332;2022-07-29T06:17:16;101554.78;;;20.17;49.73
19096;BME280;9680;52.520;13.332;2022-07-29T06:19:41;101545.31;;;20.27;49.11
19096;BME280;9680;52.520;13.332;2022-07-29T06:22:07;101553.03;;;20.30;49.24
19096;BME280;9680;52.520;13.332;2022-07-29T06:24:32;101552.81;;;20.33;49.21
19096;BME280;9680;52.520;13.332;2022-07-29T06:26:58;101557.38;;;20.31;48.92
19096;BME280;9680;52.520;13.332;2022-07-29T06:29:24;101551.00;;;20.34;48.82
19096;BME280;9680;52.520;13.332;2022-07-29T06:31:49;101558.13;;;20.33;48.71
19096;BME280;9680;52.520;13.332;2022-07-29T06:34:15;101547.81;;;20.29;48.92
19096;BME280;9680;52.520;13.332;2022-07-29T06:36:41;101547.63;;;20.32;48.97
19096;BME280;9680;52.520;13.332;2022-07-29T06:39:07;101546.59;;;20.34;48.38
19096;BME280;9680;52.520;13.332;2022-07-29T06:41:33;101550.50;;;20.42;48.56
19096;BME280;9680;52.520;13.332;2022-07-29T06:44:07;101556.22;;;20.48;48.50
19096;BME280;9680;52.520;13.332;2022-07-29T06:46:33;101554.69;;;20.59;48.14
19096;BME280;9680;52.520;13.332;2022-07-29T06:48:59;101550.13;;;20.61;48.03
19096;BME280;9680;52.520;13.332;2022-07-29T06:51:26;101557.53;;;20.69;48.02
19096;BME280;9680;52.520;13.332;2022-07-29T06:53:52;101555.41;;;20.74;47.84
19096;BME280;9680;52.520;13.332;2022-07-29T06:56:18;101561.13;;;20.67;47.74
19096;BME280;9680;52.520;13.332;2022-07-29T06:58:43;101569.59;;;20.73;47.68
19096;BME280;9680;52.520;13.332;2022-07-29T07:01:09;101566.47;;;20.80;47.58
19096;BME280;9680;52.520;13.332;2022-07-29T07:03:34;101569.00;;;20.95;47.65
19096;BME280;9680;52.520;13.332;2022-07-29T07:06:00;101569.41;;;21.15;47.54
19096;BME280;9680;52.520;13.332;2022-07-29T07:08:26;101569.94;;;21.33;47.03
19096;BME280;9680;52.520;13.332;2022-07-29T07:10:52;101572.97;;;21.52;46.67
19096;BME280;9680;52.520;13.332;2022-07-29T07:13:18;101568.47;;;21.79;46.22
19096;BME280;9680;52.520;13.332;2022-07-29T07:15:44;101570.34;;;21.90;45.38
19096;BME280;9680;52.520;13.332;2022-07-29T07:18:10;101567.19;;;21.85;45.37
19096;BME280;9680;52.520;13.332;2022-07-29T07:20:36;101555.50;;;21.87;45.46
19096;BME280;9680;52.520;13.332;2022-07-29T07:23:02;101561.16;;;21.82;45.38
19096;BME280;9680;52.520;13.332;2022-07-29T07:25:28;101548.72;;;21.83;45.52
19096;BME280;9680;52.520;13.332;2022-07-29T07:27:54;101556.41;;;21.99;45.13
19096;BME280;9680;52.520;13.332;2022-07-29T07:30:19;101563.16;;;22.03;45.07
19096;BME280;9680;52.520;13.332;2022-07-29T07:32:45;101551.88;;;22.13;44.62
19096;BME280;9680;52.520;13.332;2022-07-29T07:35:10;101555.75;;;22.20;44.00
19096;BME280;9680;52.520;13.332;2022-07-29T07:37:37;101558.97;;;22.36;44.19
19096;BME280;9680;52.520;13.332;2022-07-29T07:40:03;101560.97;;;22.46;43.54
19096;BME280;9680;52.520;13.332;2022-07-29T07:42:29;101550.09;;;22.49;43.65
19096;BME280;9680;52.520;13.332;2022-07-29T07:45:01;101544.91;;;22.47;43.13
19096;BME280;9680;52.520;13.332;2022-07-29T07:47:26;101550.38;;;22.57;43.30
19096;BME280;9680;52.520;13.332;2022-07-29T07:49:52;101542.41;;;22.57;43.43
19096;BME280;9680;52.520;13.332;2022-07-29T07:52:20;101551.81;;;22.61;43.16
19096;BME280;9680;52.520;13.332;2022-07-29T07:54:46;101550.75;;;22.75;42.85
19096;BME280;9680;52.520;13.332;2022-07-29T07:57:14;101544.59;;;22.86;42.03
19096;BME280;9680;52.520;13.332;2022-07-29T07:59:40;101545.13;;;23.03;42.00
19096;BME280;9680;52.520;13.332;2022-07-29T08:02:06;101540.88;;;23.23;41.84
19096;BME280;9680;52.520;13.332;2022-07-29T08:04:32;101542.59;;;23.35;41.14
19096;BME280;9680;52.520;13.332;2022-07-29T08:06:58;101538.00;;;23.37;41.46
19096;BME280;9680;52.520;13.332;2022-07-29T08:09:25;101536.81;;;23.30;40.52
19096;BME280;9680;52.520;13.332;2022-07-29T08:11:51;101538.59;;;23.30;41.34
19096;BME280;9680;52.520;13.332;2022-07-29T08:14:18;101536.66;;;23.32;41.11
19096;BME280;9680;52.520;13.332;2022-07-29T08:16:44;101536.09;;;23.28;40.88
19096;BME280;9680;52.520;13.332;2022-07-29T08:19:09;101530.88;;;23.26;40.75
19096;BME280;9680;52.520;13.332;2022-07-29T08:21:35;101529.75;;;23.18;40.55
19096;BME280;9680;52.520;13.332;2022-07-29T08:24:01;101530.63;;;23.18;41.01
19096;BME280;9680;52.520;13.332;2022-07-29T08:26:45;101529.19;;;23.25;40.25
19096;BME280;9680;52.520;13.332;2022-07-29T08:29:12;101525.44;;;23.39;40.38
19096;BME280;9680;52.520;13.332;2022-07-29T08:31:38;101526.22;;;23.51;40.13
19096;BME280;9680;52.520;13.332;2022-07-29T08:34:05;101521.16;;;23.60;40.18
19096;BME280;9680;52.520;13.332;2022-07-29T08:36:32;101521.50;;;23.66;40.29
19096;BME280;9680;52.520;13.332;2022-07-29T08:38:58;101525.22;;;23.75;39.55
19096;BME280;9680;52.520;13.332;2022-07-29T08:41:25;101514.19;;;23.80;39.43
19096;BME280;9680;52.520;13.332;2022-07-29T08:43:50;101517.19;;;23.87;39.14
19096;BME280;9680;52.520;13.332;2022-07-29T08:46:17;101512.81;;;23.97;39.21
19096;BME280;9680;52.520;13.332;2022-07-29T08:48:43;101510.84;;;24.10;39.46
19096;BME280;9680;52.520;13.332;2022-07-29T08:51:14;101517.00;;;24.11;37.92
19096;BME280;9680;52.520;13.332;2022-07-29T08:53:41;101515.69;;;24.05;38.33
19096;BME280;9680;52.520;13.332;2022-07-29T08:56:11;101509.44;;;23.95;38.17
19096;BME280;9680;52.520;13.332;2022-07-29T08:58:39;101514.53;;;23.87;38.15
19096;BME280;9680;52.520;13.332;2022-07-29T09:01:06;101519.25;;;23.83;38.62
19096;BME280;9680;52.520;13.332;2022-07-29T09:03:34;101512.59;;;23.89;38.07
19096;BME280;9680;52.520;13.332;2022-07-29T09:06:02;101506.31;;;23.90;37.98
19096;BME280;9680;52.520;13.332;2022-07-29T09:08:28;101516.94;;;23.90;38.05
19096;BME280;9680;52.520;13.332;2022-07-29T09:10:57;101518.97;;;23.97;38.23
19096;BME280;9680;52.520;13.332;2022-07-29T09:13:23;101519.41;;;24.14;38.14
19096;BME280;9680;52.520;13.332;2022-07-29T09:15:50;101519.53;;;24.34;37.26
19096;BME280;9680;52.520;13.332;2022-07-29T09:18:38;101513.16;;;24.46;37.24
19096;BME280;9680;52.520;13.332;2022-07-29T09:21:07;101515.56;;;24.70;37.37
19096;BME280;9680;52.520;13.332;2022-07-29T09:24:11;101508.56;;;25.00;36.74
19096;BME280;9680;52.520;13.332;2022-07-29T09:26:42;101511.56;;;25.17;36.37
19096;BME280;9680;52.520;13.332;2022-07-29T09:29:14;101510.44;;;25.10;35.51
19096;BME280;9680;52.520;13.332;2022-07-29T09:31:42;101513.19;;;24.98;35.16
19096;BME280;9680;52.520;13.332;2022-07-29T09:34:09;101498.03;;;24.99;34.93
19096;BME280;9680;52.520;13.332;2022-07-29T09:36:46;101501.94;;;24.95;34.47
19096;BME280;9680;52.520;13.332;2022-07-29T09:39:14;101502.88;;;24.84;34.66
19096;BME280;9680;52.520;13.332;2022-07-29T09:41:48;101507.00;;;24.88;34.50
19096;BME280;9680;52.520;13.332;2022-07-29T09:44:14;101499.16;;;24.96;34.68
19096;BME280;9680;52.520;13.332;2022-07-29T09:46:55;101492.59;;;25.10;34.60
19096;BME280;9680;52.520;13.332;2022-07-29T09:49:21;101490.84;;;25.30;34.65
19096;BME280;9680;52.520;13.332;2022-07-29T09:51:47;101486.81;;;25.46;33.95
19096;BME280;9680;52.520;13.332;2022-07-29T09:54:26;101489.66;;;25.54;34.27
19096;BME280;9680;52.520;13.332;2022-07-29T09:56:53;101481.25;;;25.69;33.06
19096;BME280;9680;52.520;13.332;2022-07-29T09:59:19;101485.56;;;25.80;33.13
19096;BME280;9680;52.520;13.332;2022-07-29T10:01:48;101489.38;;;25.97;33.30
19096;BME280;9680;52.520;13.332;2022-07-29T10:04:15;101485.72;;;25.98;32.67
19096;BME280;9680;52.520;13.332;2022-07-29T10:07:10;101481.34;;;26.07;32.99
19096;BME280;9680;52.520;13.332;2022-07-29T10:09:36;101479.53;;;26.07;32.92
19096;BME280;9680;52.520;13.332;2022-07-29T10:12:12;101483.03;;;26.08;32.86
19096;BME280;9680;52.520;13.332;2022-07-29T10:14:40;101468.56;;;26.10;32.81
19096;BME280;9680;52.520;13.332;2022-07-29T10:17:08;101474.06;;;26.09;31.97
19096;BME280;9680;52.520;13.332;2022-07-29T10:19:35;101478.28;;;26.01;31.96
19096;BME280;9680;52.520;13.332;2022-07-29T10:22:06;101477.28;;;26.02;32.08
19096;BME280;9680;52.520;13.332;2022-07-29T10:24:33;101473.94;;;25.91;31.33
19096;BME280;9680;52.520;13.332;2022-07-29T10:27:01;101474.78;;;25.91;31.74
19096;BME280;9680;52.520;13.332;2022-07-29T10:29:29;101467.31;;;26.05;31.50
19096;BME280;9680;52.520;13.332;2022-07-29T10:35:14;101470.38;;;26.39;31.31
19096;BME280;9680;52.520;13.332;2022-07-29T10:43:46;101476.19;;;27.46;29.28
19096;BME280;9680;52.520;13.332;2022-07-29T10:46:13;101466.13;;;27.58;29.77
19096;BME280;9680;52.520;13.332;2022-07-29T10:54:18;101456.31;;;27.85;29.20
19096;BME280;9680;52.520;13.332;2022-07-29T10:56:44;101460.31;;;27.81;28.50
19096;BME280;9680;52.520;13.332;2022-07-29T11:01:45;101452.66;;;28.31;28.71
19096;BME280;9680;52.520;13.332;2022-07-29T11:04:12;101454.38;;;28.40;28.39
19096;BME280;9680;52.520;13.332;2022-07-29T11:09:28;101453.84;;;28.37;28.53
19096;BME280;9680;52.520;13.332;2022-07-29T11:11:59;101450.13;;;28.11;27.86
19096;BME280;9680;52.520;13.332;2022-07-29T11:17:18;101443.88;;;27.58;28.65
19096;BME280;9680;52.520;13.332;2022-07-29T11:19:44;101447.16;;;27.52;28.57
19096;BME280;9680;52.520;13.332;2022-07-29T11:22:10;101448.59;;;27.46;28.87
19096;BME280;9680;52.520;13.332;2022-07-29T11:24:36;101438.06;;;27.44;29.48
19096;BME280;9680;52.520;13.332;2022-07-29T11:27:31;101425.50;;;27.45;28.96
19096;BME280;9680;52.520;13.332;2022-07-29T11:30:05;101439.19;;;27.42;29.26
19096;BME280;9680;52.520;13.332;2022-07-29T11:32:37;101443.84;;;27.40;29.47
19096;BME280;9680;52.520;13.332;2022-07-29T11:37:39;101445.16;;;27.36;29.74
19096;BME280;9680;52.520;13.332;2022-07-29T11:45:22;101432.69;;;27.44;29.40
19096;BME280;9680;52.520;13.332;2022-07-29T11:47:51;101429.84;;;27.46;29.75
19096;BME280;9680;52.520;13.332;2022-07-29T11:50:27;101423.31;;;27.40;29.93
19096;BME280;9680;52.520;13.332;2022-07-29T11:52:53;101431.53;;;27.47;29.79
19096;BME280;9680;52.520;13.332;2022-07-29T11:55:21;101424.69;;;27.44;29.63
19096;BME280;9680;52.520;13.332;2022-07-29T11:57:52;101422.13;;;27.43;30.18
19096;BME280;9680;52.520;13.332;2022-07-29T12:00:27;101422.31;;;27.41;30.15
19096;BME280;9680;52.520;13.332;2022-07-29T12:02:54;101416.28;;;27.39;30.41
19096;BME280;9680;52.520;13.332;2022-07-29T12:05:21;101417.28;;;27.38;30.50
19096;BME280;9680;52.520;13.332;2022-07-29T12:07:47;101406.25;;;27.41;30.55
19096;BME280;9680;52.520;13.332;2022-07-29T12:10:14;101413.13;;;27.44;30.90
19096;BME280;9680;52.520;13.332;2022-07-29T12:12:39;101409.94;;;27.40;30.88
19096;BME280;9680;52.520;13.332;2022-07-29T12:15:16;101409.69;;;27.33;31.52
19096;BME280;9680;52.520;13.332;2022-07-29T12:17:49;101411.81;;;27.48;31.23
19096;BME280;9680;52.520;13.332;2022-07-29T12:20:29;101402.78;;;27.49;31.35
19096;BME280;9680;52.520;13.332;2022-07-29T12:22:55;101408.28;;;27.57;31.67
19096;BME280;9680;52.520;13.332;2022-07-29T12:25:23;101393.66;;;27.70;31.70
19096;BME280;9680;52.520;13.332;2022-07-29T12:28:04;101387.59;;;27.86;31.62
19096;BME280;9680;52.520;13.332;2022-07-29T12:30:41;101384.00;;;28.03;31.38
19096;BME280;9680;52.520;13.332;2022-07-29T12:33:13;101388.88;;;28.08;31.57
19096;BME280;9680;52.520;13.332;2022-07-29T12:35:39;101387.03;;;28.09;31.58
19096;BME280;9680;52.520;13.332;2022-07-29T12:38:05;101379.94;;;28.17;31.50
19096;BME280;9680;52.520;13.332;2022-07-29T12:40:31;101378.97;;;28.00;30.89
19096;BME280;9680;52.520;13.332;2022-07-29T12:43:08;101374.34;;;27.84;31.39
19096;BME280;9680;52.520;13.332;2022-07-29T12:45:35;101377.81;;;28.03;31.76
19096;BME280;9680;52.520;13.332;2022-07-29T12:48:01;101377.94;;;28.19;31.65
19096;BME280;9680;52.520;13.332;2022-07-29T12:50:27;101378.97;;;28.27;31.90
19096;BME280;9680;52.520;13.332;2022-07-29T12:52:52;101385.06;;;28.37;31.43
19096;BME280;9680;52.520;13.332;2022-07-29T12:55:47;101372.66;;;28.36;30.68
19096;BME280;9680;52.520;13.332;2022-07-29T12:58:30;101373.19;;;28.48;30.69
19096;BME280;9680;52.520;13.332;2022-07-29T13:01:15;101378.13;;;28.69;31.10
19096;BME280;9680;52.520;13.332;2022-07-29T13:03:56;101373.13;;;28.74;30.81
19096;BME280;9680;52.520;13.332;2022-07-29T13:06:39;101373.34;;;28.81;30.48
19096;BME280;9680;52.520;13.332;2022-07-29T13:09:52;101374.34;;;28.80;30.59
19096;BME280;9680;52.520;13.332;2022-07-29T13:12:06;101366.75;;;28.75;30.61
19096;BME280;9680;52.520;13.332;2022-07-29T13:14:36;101369.41;;;28.67;30.78
19096;BME280;9680;52.520;13.332;2022-07-29T13:19:44;101360.91;;;28.72;31.09
19096;BME280;9680;52.520;13.332;2022-07-29T13:22:11;101355.09;;;28.85;30.46
19096;BME280;9680;52.520;13.332;2022-07-29T13:24:54;101344.06;;;28.88;30.51
19096;BME280;9680;52.520;13.332;2022-07-29T13:27:22;101347.41;;;29.06;30.62
19096;BME280;9680;52.520;13.332;2022-07-29T13:29:49;101348.94;;;29.34;30.57
19096;BME280;9680;52.520;13.332;2022-07-29T13:32:18;101347.09;;;29.43;30.60
19096;BME280;9680;52.520;13.332;2022-07-29T13:34:43;101349.28;;;29.47;30.23
19096;BME280;9680;52.520;13.332;2022-07-29T13:37:09;101351.47;;;29.60;29.80
19096;BME280;9680;52.520;13.332;2022-07-29T13:39:35;101347.63;;;29.55;29.25
19096;BME280;9680;52.520;13.332;2022-07-29T13:42:00;101340.56;;;29.54;29.39
19096;BME280;9680;52.520;13.332;2022-07-29T13:44:29;101337.91;;;29.45;29.23